Time;durP1;ratioP1;P1;durP2;ratioP2;P2;SDS_P1;SDS_P2;PMS_P1;PMS_P2;Temp;Humidity;BMP_temperature;BMP_pressure;BME280_temperature;BME280_humidity;BME280_pressure;Samples;Min_cycle;Max_cycle;Signal;HPM_P1;HPM_P2
2023/10/26 00:01:38;;;;;;;21.80;14.83;;;8.90;99.90;;;;;;10286269;28;20268;-87
2023/10/26 00:06:40;;;;;;;26.00;17.40;;;9.20;99.90;;;;;;10269965;28;20261;-87
2023/10/26 00:11:42;;;;;;;22.23;14.63;;;9.30;99.90;;;;;;10283416;28;20909;-87
2023/10/26 00:16:45;;;;;;;32.77;18.60;;;9.30;99.90;;;;;;10284897;28;20303;-87
2023/10/26 00:21:48;;;;;;;25.07;16.57;;;9.20;99.90;;;;;;10284882;28;20245;-87
2023/10/26 00:26:50;;;;;;;21.90;15.00;;;9.10;99.90;;;;;;10274511;28;20262;-87
2023/10/26 00:31:53;;;;;;;21.13;15.70;;;9.20;99.90;;;;;;10279162;28;20751;-87
2023/10/26 00:36:55;;;;;;;25.77;15.80;;;9.20;99.90;;;;;;10253151;28;20641;-87
2023/10/26 00:41:58;;;;;;;21.57;15.43;;;9.20;99.90;;;;;;10268878;28;20257;-87
2023/10/26 00:47:01;;;;;;;16.77;13.37;;;9.10;99.90;;;;;;10276508;28;20323;-87
2023/10/26 00:52:04;;;;;;;21.70;15.23;;;9.20;99.90;;;;;;10296472;28;20288;-87
2023/10/26 00:57:06;;;;;;;28.70;16.93;;;9.30;99.90;;;;;;10299447;28;20233;-87
2023/10/26 01:02:10;;;;;;;33.53;17.30;;;9.40;99.90;;;;;;10279947;28;20244;-87
2023/10/26 01:07:13;;;;;;;31.40;17.77;;;9.40;99.90;;;;;;10297395;28;20786;-87
2023/10/26 01:12:16;;;;;;;18.70;13.87;;;9.70;99.90;;;;;;10297144;28;20303;-87
2023/10/26 01:17:19;;;;;;;21.17;16.03;;;9.90;99.90;;;;;;10278435;28;20245;-87
2023/10/26 01:22:29;;;;;;;14.67;11.10;;;9.90;99.90;;;;;;10298174;28;20237;-87
2023/10/26 01:27:32;;;;;;;22.40;16.53;;;10.00;99.90;;;;;;10298546;28;20253;-87
2023/10/26 01:32:34;;;;;;;23.40;15.83;;;10.00;99.90;;;;;;10264658;28;20280;-87
2023/10/26 01:37:38;;;;;;;24.93;15.47;;;10.00;99.90;;;;;;10297979;28;20233;-87
2023/10/26 01:42:41;;;;;;;24.80;15.47;;;9.90;99.90;;;;;;10297581;28;20343;-87
2023/10/26 01:47:43;;;;;;;29.60;16.73;;;9.90;99.90;;;;;;10297309;28;20719;-87
2023/10/26 01:52:46;;;;;;;22.17;15.13;;;9.70;99.90;;;;;;10280511;28;20292;-88
2023/10/26 01:57:49;;;;;;;22.10;15.83;;;9.50;99.90;;;;;;10278054;28;20610;-87
2023/10/26 02:02:51;;;;;;;22.07;16.27;;;9.50;99.90;;;;;;10262076;28;20239;-87
2023/10/26 02:07:54;;;;;;;22.47;15.90;;;9.40;99.90;;;;;;10247700;28;20309;-87
2023/10/26 02:12:57;;;;;;;22.70;15.80;;;9.30;99.90;;;;;;10271689;28;20233;-87
2023/10/26 02:18:00;;;;;;;20.80;15.03;;;9.40;99.90;;;;;;10275122;28;20335;-87
2023/10/26 02:23:03;;;;;;;16.00;11.03;;;9.30;99.90;;;;;;10270909;28;20308;-87
2023/10/26 02:28:05;;;;;;;23.37;16.30;;;9.50;99.90;;;;;;10252631;28;20262;-87
2023/10/26 02:33:08;;;;;;;21.63;14.20;;;9.40;99.90;;;;;;10265561;28;20245;-87
2023/10/26 02:38:11;;;;;;;22.43;16.03;;;9.50;99.90;;;;;;10272645;28;20261;-87
2023/10/26 02:43:14;;;;;;;26.73;18.17;;;9.50;99.90;;;;;;10289933;28;20304;-86
2023/10/26 02:48:16;;;;;;;16.90;12.37;;;9.70;99.90;;;;;;10272610;28;20237;-87
2023/10/26 02:53:19;;;;;;;28.10;16.57;;;10.00;99.90;;;;;;10288538;28;20575;-87
2023/10/26 02:58:22;;;;;;;25.10;15.70;;;10.30;99.90;;;;;;10264604;28;20233;-88
2023/10/26 03:03:25;;;;;;;26.57;16.90;;;10.50;99.90;;;;;;10287076;28;20648;-88
2023/10/26 03:08:28;;;;;;;24.00;16.20;;;10.70;99.90;;;;;;10272130;28;20235;-87
2023/10/26 03:13:31;;;;;;;30.70;19.53;;;10.80;99.90;;;;;;10271687;28;20241;-88
2023/10/26 03:18:35;;;;;;;35.97;22.20;;;10.90;99.90;;;;;;10289651;28;20629;-87
2023/10/26 03:23:38;;;;;;;25.50;16.23;;;11.00;99.90;;;;;;10290039;28;20614;-88
2023/10/26 03:28:40;;;;;;;29.20;19.23;;;11.00;99.90;;;;;;10273166;28;20229;-88
2023/10/26 03:33:42;;;;;;;28.77;20.07;;;11.10;99.90;;;;;;10289742;28;20213;-88
2023/10/26 03:38:46;;;;;;;32.73;23.00;;;11.00;99.90;;;;;;10255564;28;20320;-88
2023/10/26 03:43:50;;;;;;;20.90;13.77;;;11.00;99.90;;;;;;10286976;28;21013;-88
2023/10/26 03:48:52;;;;;;;29.17;17.70;;;11.00;99.90;;;;;;10286928;28;20690;-88
2023/10/26 03:53:55;;;;;;;28.17;18.03;;;11.10;99.90;;;;;;10271096;28;20202;-87
2023/10/26 03:58:57;;;;;;;37.07;20.83;;;11.00;99.90;;;;;;10270837;28;20213;-88
2023/10/26 04:04:01;;;;;;;20.37;13.27;;;11.00;99.90;;;;;;10287745;28;20261;-88
2023/10/26 04:09:04;;;;;;;19.90;13.83;;;10.90;99.90;;;;;;10289110;28;20250;-88
2023/10/26 04:14:07;;;;;;;28.27;18.03;;;11.10;99.90;;;;;;10287005;28;20711;-88
2023/10/26 04:19:10;;;;;;;22.40;15.03;;;11.10;99.90;;;;;;10248420;29;20237;-88
2023/10/26 04:24:12;;;;;;;15.90;11.67;;;11.20;99.90;;;;;;10266557;28;20285;-88
2023/10/26 04:29:15;;;;;;;25.53;14.93;;;11.10;99.90;;;;;;10287831;28;20257;-88
2023/10/26 04:34:17;;;;;;;32.53;18.83;;;11.20;99.90;;;;;;10286140;28;20245;-88
2023/10/26 04:39:22;;;;;;;24.87;16.67;;;11.20;99.90;;;;;;10287526;28;20268;-88
2023/10/26 04:44:24;;;;;;;25.37;15.83;;;11.20;99.90;;;;;;10285570;28;20265;-88
2023/10/26 04:49:27;;;;;;;16.07;11.17;;;11.20;99.90;;;;;;10268451;28;20750;-87
2023/10/26 04:54:30;;;;;;;18.10;12.73;;;11.30;99.90;;;;;;10270748;28;20261;-88
2023/10/26 04:59:33;;;;;;;19.50;12.80;;;11.40;99.90;;;;;;10287451;28;20237;-87
2023/10/26 05:04:36;;;;;;;16.30;11.57;;;11.20;99.90;;;;;;10287306;28;20249;-86
2023/10/26 05:09:38;;;;;;;13.67;10.30;;;11.30;99.90;;;;;;10286428;28;21007;-86
2023/10/26 05:14:41;;;;;;;18.23;13.17;;;11.20;99.90;;;;;;10269973;28;20241;-86
2023/10/26 05:19:44;;;;;;;17.73;12.30;;;11.20;99.90;;;;;;10283265;28;20689;-86
2023/10/26 05:24:46;;;;;;;14.33;10.40;;;11.20;99.90;;;;;;10270561;28;20265;-86
2023/10/26 05:29:49;;;;;;;19.07;13.30;;;11.00;99.90;;;;;;10284471;28;20371;-86
2023/10/26 05:34:51;;;;;;;17.70;13.13;;;11.00;99.90;;;;;;10273131;28;20269;-87
2023/10/26 05:39:54;;;;;;;14.57;11.53;;;10.90;99.90;;;;;;10294372;28;20654;-86
2023/10/26 05:44:57;;;;;;;18.97;12.67;;;10.80;99.90;;;;;;10293360;28;20727;-86
2023/10/26 05:50:01;;;;;;;19.97;14.50;;;10.80;99.90;;;;;;10293888;28;20614;-86
2023/10/26 05:55:04;;;;;;;13.20;10.03;;;10.80;99.90;;;;;;10293328;28;20241;-86
2023/10/26 06:00:09;;;;;;;17.80;13.43;;;10.80;99.90;;;;;;10292736;28;20851;-86
2023/10/26 06:05:15;;;;;;;15.50;11.63;;;10.80;99.90;;;;;;10294025;28;20288;-86
2023/10/26 06:10:17;;;;;;;18.40;12.17;;;10.80;99.90;;;;;;10294849;28;20210;-86
2023/10/26 06:15:20;;;;;;;23.17;15.23;;;11.00;99.90;;;;;;10287777;28;20211;-86
2023/10/26 06:20:27;;;;;;;20.20;13.33;;;11.00;99.90;;;;;;10266208;28;20191;-86
2023/10/26 06:25:34;;;;;;;17.13;11.47;;;11.00;99.90;;;;;;10315212;28;20214;-86
2023/10/26 06:30:37;;;;;;;18.47;13.53;;;11.00;99.90;;;;;;10345862;28;20225;-86
2023/10/26 06:35:40;;;;;;;15.83;10.97;;;10.90;99.90;;;;;;10344244;28;20201;-86
2023/10/26 06:40:44;;;;;;;12.70;9.10;;;11.00;99.90;;;;;;10326198;28;20221;-86
2023/10/26 06:45:46;;;;;;;12.40;9.13;;;11.30;99.90;;;;;;10344358;28;20210;-86
2023/10/26 06:50:56;;;;;;;16.03;10.17;;;11.50;99.90;;;;;;10323939;28;20193;-84
2023/10/26 06:55:58;;;;;;;12.43;9.57;;;11.60;99.90;;;;;;10342336;28;20182;-86
2023/10/26 07:01:06;;;;;;;17.87;13.07;;;11.80;99.90;;;;;;10306270;28;20210;-86
2023/10/26 07:06:25;;;;;;;17.13;12.40;;;11.90;99.90;;;;;;10314895;28;20225;-85
2023/10/26 07:11:28;;;;;;;19.13;14.33;;;12.00;99.90;;;;;;10343377;28;20202;-86
2023/10/26 07:16:30;;;;;;;14.73;10.70;;;12.00;99.90;;;;;;10348041;28;20218;-86
2023/10/26 07:21:33;;;;;;;21.23;14.17;;;12.10;99.90;;;;;;10342478;28;20182;-86
2023/10/26 07:26:36;;;;;;;11.77;8.67;;;12.10;99.90;;;;;;10346449;28;20908;-86
2023/10/26 07:31:38;;;;;;;16.03;11.33;;;12.30;99.90;;;;;;10341998;28;20233;-86
2023/10/26 07:36:58;;;;;;;21.40;14.63;;;12.40;99.90;;;;;;10327000;28;20186;-86
2023/10/26 07:42:02;;;;;;;20.20;13.17;;;12.40;99.90;;;;;;10325671;28;20241;-86
2023/10/26 07:47:12;;;;;;;22.90;14.00;;;12.50;99.90;;;;;;10342215;28;20226;-86
2023/10/26 07:52:15;;;;;;;13.87;9.70;;;12.50;99.90;;;;;;10347117;28;20186;-86
2023/10/26 07:57:19;;;;;;;16.93;10.93;;;12.50;99.90;;;;;;10339703;28;20199;-86
2023/10/26 08:02:22;;;;;;;13.30;9.60;;;12.50;99.90;;;;;;10340870;28;20186;-87
2023/10/26 08:07:25;;;;;;;10.53;7.93;;;12.40;99.90;;;;;;10324812;28;20237;-87
2023/10/26 08:12:28;;;;;;;9.50;7.50;;;12.40;99.90;;;;;;10341010;28;20174;-87
2023/10/26 08:17:35;;;;;;;11.80;9.03;;;12.50;99.90;;;;;;10341407;28;20186;-87
2023/10/26 08:22:38;;;;;;;12.53;8.23;;;12.50;99.90;;;;;;10323588;28;20291;-87
2023/10/26 08:27:42;;;;;;;10.87;7.87;;;12.50;99.90;;;;;;10340325;28;20244;-87
2023/10/26 08:32:45;;;;;;;12.03;8.53;;;12.50;99.90;;;;;;10340510;28;20242;-86
2023/10/26 08:37:49;;;;;;;13.30;9.40;;;12.60;99.90;;;;;;10340597;28;20186;-85
2023/10/26 08:42:52;;;;;;;13.20;10.00;;;12.50;99.90;;;;;;10340399;28;20222;-87
2023/10/26 08:47:56;;;;;;;11.67;8.63;;;12.50;99.90;;;;;;10339235;28;20241;-85
2023/10/26 08:52:59;;;;;;;11.97;9.77;;;12.50;99.90;;;;;;10318484;28;20201;-86
2023/10/26 08:58:03;;;;;;;13.13;10.13;;;12.50;99.90;;;;;;10318750;28;20202;-83
2023/10/26 09:03:06;;;;;;;16.27;11.73;;;12.60;99.90;;;;;;10317374;28;20205;-84
2023/10/26 09:08:20;;;;;;;14.03;10.63;;;12.50;99.90;;;;;;10297985;28;20647;-84
2023/10/26 09:13:25;;;;;;;14.00;10.87;;;12.50;99.90;;;;;;10304806;28;20213;-85
2023/10/26 09:18:28;;;;;;;14.37;10.63;;;12.60;99.90;;;;;;10302321;28;20201;-85
2023/10/26 09:23:39;;;;;;;17.30;11.97;;;12.70;99.90;;;;;;10302835;28;20261;-85
2023/10/26 09:28:56;;;;;;;21.93;14.90;;;12.80;99.90;;;;;;10304747;28;20284;-84
2023/10/26 09:34:10;;;;;;;20.43;13.83;;;12.80;99.90;;;;;;10303270;28;20202;-85
2023/10/26 09:39:13;;;;;;;20.57;13.77;;;12.90;99.90;;;;;;10329078;28;20233;-84
2023/10/26 09:44:16;;;;;;;20.97;13.60;;;12.80;99.90;;;;;;10342487;28;20197;-84
2023/10/26 09:49:19;;;;;;;20.60;14.30;;;12.90;99.90;;;;;;10325276;28;20704;-84
2023/10/26 09:54:27;;;;;;;17.27;12.23;;;13.00;99.90;;;;;;10342485;28;20209;-85
2023/10/26 09:59:31;;;;;;;18.77;13.77;;;12.90;99.90;;;;;;10341902;28;20194;-85
2023/10/26 10:04:37;;;;;;;17.23;12.33;;;12.80;99.90;;;;;;10340374;28;20217;-85
2023/10/26 10:10:02;;;;;;;12.20;9.27;;;12.80;99.90;;;;;;10340992;28;20228;-85
2023/10/26 10:15:07;;;;;;;19.93;15.37;;;12.70;99.90;;;;;;10341392;28;20236;-85
2023/10/26 10:20:16;;;;;;;21.10;13.70;;;12.70;99.90;;;;;;10340236;28;20274;-85
2023/10/26 10:25:23;;;;;;;14.60;10.80;;;12.70;99.90;;;;;;10339309;28;20225;-84
2023/10/26 10:30:30;;;;;;;19.30;12.53;;;12.70;99.90;;;;;;10339428;28;20256;-85
2023/10/26 10:35:32;;;;;;;19.20;12.63;;;12.70;99.90;;;;;;10276376;28;20206;-86
2023/10/26 10:40:38;;;;;;;14.70;11.07;;;12.80;99.90;;;;;;10267859;28;20238;-84
2023/10/26 10:45:40;;;;;;;17.33;13.07;;;12.90;99.90;;;;;;10305255;28;20281;-86
2023/10/26 10:50:43;;;;;;;12.17;9.00;;;12.80;99.90;;;;;;10302729;28;20613;-86
2023/10/26 10:55:46;;;;;;;17.17;12.20;;;12.90;99.90;;;;;;10298059;28;20206;-87
2023/10/26 11:00:49;;;;;;;12.10;9.40;;;13.10;99.90;;;;;;10284978;28;20730;-87
2023/10/26 11:05:52;;;;;;;17.50;12.37;;;13.20;99.90;;;;;;10300545;28;20693;-87
2023/10/26 11:10:54;;;;;;;18.60;12.83;;;13.30;99.90;;;;;;10260791;28;20259;-86
2023/10/26 11:15:57;;;;;;;17.97;13.27;;;13.20;99.90;;;;;;10299101;28;20206;-86
2023/10/26 11:26:31;;;;;;;17.33;12.13;;;13.20;99.90;;;;;;11073986;23;20316;-87
2023/10/26 11:31:35;;;;;;;13.63;10.80;;;13.30;99.90;;;;;;10307203;28;20203;-87
2023/10/26 11:36:38;;;;;;;20.47;13.93;;;13.40;99.90;;;;;;10335500;28;20199;-87
2023/10/26 11:41:40;;;;;;;23.40;14.80;;;13.10;99.90;;;;;;10333247;28;20259;-86
2023/10/26 11:46:43;;;;;;;16.83;11.57;;;13.10;99.90;;;;;;10315535;28;20294;-87
2023/10/26 11:51:45;;;;;;;20.07;14.70;;;13.10;99.90;;;;;;10330341;28;20216;-86
2023/10/26 11:56:58;;;;;;;23.43;14.73;;;13.20;99.90;;;;;;10315499;28;20204;-87
2023/10/26 12:02:00;;;;;;;26.27;16.33;;;13.10;99.90;;;;;;10341437;28;20207;-87
2023/10/26 12:07:03;;;;;;;19.03;13.30;;;13.00;99.90;;;;;;10330867;28;20316;-87
2023/10/26 12:12:06;;;;;;;24.57;17.80;;;12.90;99.90;;;;;;10329586;28;20266;-87
2023/10/26 12:17:09;;;;;;;23.33;17.43;;;13.00;99.90;;;;;;10330867;28;20209;-87
2023/10/26 12:22:11;;;;;;;19.83;14.90;;;12.90;99.90;;;;;;10312828;28;20209;-87
2023/10/26 12:27:16;;;;;;;22.00;15.83;;;12.90;99.90;;;;;;10369746;28;20260;-87
2023/10/26 12:32:19;;;;;;;19.37;13.17;;;13.00;99.90;;;;;;10342043;28;20241;-87
2023/10/26 12:37:22;;;;;;;19.30;13.73;;;13.00;99.90;;;;;;10330497;28;20197;-87
2023/10/26 12:42:25;;;;;;;23.20;15.50;;;13.10;99.90;;;;;;10330556;28;20746;-87
2023/10/26 12:47:27;;;;;;;26.00;14.97;;;12.90;99.90;;;;;;10330278;28;20298;-87
2023/10/26 12:52:30;;;;;;;21.67;14.33;;;12.80;99.90;;;;;;10329397;28;20245;-87
2023/10/26 12:57:33;;;;;;;24.13;16.10;;;13.00;99.90;;;;;;10330159;28;20244;-87
2023/10/26 13:02:36;;;;;;;18.37;13.93;;;13.00;99.90;;;;;;10344223;28;20255;-87
2023/10/26 13:07:38;;;;;;;17.77;12.97;;;13.00;99.90;;;;;;10304823;28;20254;-87
2023/10/26 13:12:41;;;;;;;27.93;17.27;;;13.10;99.90;;;;;;10330557;28;20193;-87
2023/10/26 13:17:44;;;;;;;21.57;15.77;;;12.90;99.90;;;;;;10329507;28;20213;-87
2023/10/26 13:22:46;;;;;;;24.43;17.30;;;12.60;99.90;;;;;;10302119;28;20202;-86
2023/10/26 13:27:49;;;;;;;23.43;16.83;;;12.40;99.90;;;;;;10328326;28;20241;-86
2023/10/26 13:32:52;;;;;;;31.20;19.03;;;12.40;99.90;;;;;;10329475;28;20206;-86
2023/10/26 13:37:54;;;;;;;28.03;18.93;;;12.20;99.90;;;;;;10318409;28;20205;-87
2023/10/26 13:42:57;;;;;;;20.63;15.70;;;12.20;99.90;;;;;;10318645;28;20212;-87
2023/10/26 13:48:00;;;;;;;20.20;14.07;;;12.30;99.90;;;;;;10326306;28;20252;-86
2023/10/26 13:53:02;;;;;;;19.60;13.87;;;12.30;99.90;;;;;;10331478;28;20232;-86
2023/10/26 13:58:05;;;;;;;22.33;14.63;;;12.40;99.90;;;;;;10337227;28;20263;-87
2023/10/26 14:03:08;;;;;;;19.20;13.97;;;12.40;99.90;;;;;;10338458;28;20197;-88
2023/10/26 14:08:11;;;;;;;21.33;15.27;;;12.50;99.90;;;;;;10294611;28;20292;-88
2023/10/26 14:13:13;;;;;;;20.00;13.93;;;12.60;99.90;;;;;;10295871;28;20209;-88
2023/10/26 14:18:16;;;;;;;18.97;14.10;;;12.60;99.90;;;;;;10296348;28;20209;-88
2023/10/26 14:23:19;;;;;;;23.77;15.80;;;12.60;99.90;;;;;;10317566;28;20248;-88
2023/10/26 14:28:22;;;;;;;23.53;15.10;;;12.50;99.90;;;;;;10335456;28;20240;-88
2023/10/26 14:33:25;;;;;;;21.33;15.17;;;12.50;99.90;;;;;;10333423;28;20602;-87
2023/10/26 14:38:27;;;;;;;23.40;15.60;;;12.30;99.90;;;;;;10323253;28;20194;-87
2023/10/26 14:43:30;;;;;;;21.07;13.70;;;12.30;99.90;;;;;;10327235;28;20252;-87
2023/10/26 14:48:32;;;;;;;23.60;15.87;;;12.30;99.90;;;;;;10328672;28;20746;-87
2023/10/26 14:53:35;;;;;;;25.23;17.20;;;12.30;99.90;;;;;;10329210;28;20290;-87
2023/10/26 14:58:38;;;;;;;29.47;18.17;;;12.20;99.90;;;;;;10300347;28;20245;-87
2023/10/26 15:03:42;;;;;;;35.03;23.50;;;12.20;99.90;;;;;;10321133;28;20241;-87
2023/10/26 15:08:44;;;;;;;33.87;22.43;;;12.20;99.90;;;;;;10329224;28;20315;-87
2023/10/26 15:13:47;;;;;;;53.57;34.33;;;12.40;99.90;;;;;;9984781;28;9999608;-87
2023/10/26 15:18:49;;;;;;;50.17;30.03;;;12.30;99.90;;;;;;10327428;28;20233;-87
2023/10/26 15:23:52;;;;;;;31.47;20.53;;;12.20;99.90;;;;;;10327994;28;20240;-86
2023/10/26 15:28:55;;;;;;;28.23;18.43;;;12.30;99.90;;;;;;10326836;28;20276;-86
2023/10/26 15:33:58;;;;;;;29.30;19.30;;;12.30;99.90;;;;;;10328798;28;20232;-87
2023/10/26 15:39:01;;;;;;;30.80;18.07;;;12.40;99.90;;;;;;10328502;28;20279;-87
2023/10/26 15:44:04;;;;;;;20.13;15.10;;;12.40;99.90;;;;;;10327750;28;20290;-87
2023/10/26 15:49:07;;;;;;;26.13;18.63;;;12.50;99.90;;;;;;10327358;28;20256;-88
2023/10/26 15:54:29;;;;;;;28.67;20.10;;;12.70;99.90;;;;;;10327468;28;20245;-87
2023/10/26 15:59:32;;;;;;;21.47;15.87;;;12.40;99.90;;;;;;10323565;28;20248;-87
2023/10/26 16:04:35;;;;;;;28.20;19.07;;;12.50;99.90;;;;;;10322039;28;20236;-86
2023/10/26 16:09:37;;;;;;;19.97;14.47;;;12.60;99.90;;;;;;10324606;28;20280;-86
2023/10/26 16:14:40;;;;;;;38.37;21.97;;;12.90;99.90;;;;;;10322431;28;20749;-86
2023/10/26 16:19:43;;;;;;;90.60;44.17;;;13.20;99.90;;;;;;10345142;28;20239;-86
2023/10/26 16:24:49;;;;;;;47.53;26.67;;;13.00;99.90;;;;;;10306163;28;20237;-86
2023/10/26 16:29:52;;;;;;;32.80;21.33;;;13.00;99.90;;;;;;10323355;28;20321;-86
2023/10/26 16:34:55;;;;;;;29.97;20.23;;;12.90;99.90;;;;;;10325059;28;20221;-86
2023/10/26 16:39:58;;;;;;;26.50;17.97;;;12.80;99.90;;;;;;10324175;28;20244;-85
2023/10/26 16:45:00;;;;;;;27.43;19.23;;;12.90;99.90;;;;;;10356031;28;20263;-85
2023/10/26 16:50:04;;;;;;;17.60;13.67;;;13.00;99.90;;;;;;10307321;28;20257;-86
2023/10/26 16:55:07;;;;;;;19.27;15.27;;;13.10;99.90;;;;;;10324781;28;20228;-87
2023/10/26 17:00:11;;;;;;;19.53;14.73;;;12.90;99.90;;;;;;10308436;28;20232;-86
2023/10/26 17:05:13;;;;;;;21.33;14.70;;;12.30;99.90;;;;;;10324894;28;20652;-86
2023/10/26 17:10:16;;;;;;;19.37;13.37;;;11.80;99.90;;;;;;10325116;28;20259;-86
2023/10/26 17:15:20;;;;;;;21.57;15.20;;;11.60;99.90;;;;;;10307328;28;20232;-85
2023/10/26 17:20:23;;;;;;;16.33;13.17;;;11.50;99.90;;;;;;10325609;28;20236;-86
2023/10/26 17:25:25;;;;;;;20.00;13.63;;;11.50;99.90;;;;;;10323280;28;20263;-85
2023/10/26 17:30:34;;;;;;;15.77;10.80;;;11.30;99.90;;;;;;10312719;28;20925;-85
2023/10/26 17:35:51;;;;;;;13.90;11.20;;;11.20;99.90;;;;;;10332509;28;20290;-82
2023/10/26 17:40:53;;;;;;;14.87;10.70;;;11.20;99.90;;;;;;10312495;28;20314;-82
2023/10/26 17:45:56;;;;;;;15.37;11.40;;;11.10;99.90;;;;;;10350921;28;20315;-84
2023/10/26 17:51:01;;;;;;;19.10;13.90;;;11.10;99.90;;;;;;10295573;28;20302;-85
2023/10/26 17:56:08;;;;;;;14.27;11.97;;;11.00;99.90;;;;;;10311359;28;20238;-84
2023/10/26 18:01:13;;;;;;;17.47;12.07;;;10.90;99.90;;;;;;10312818;28;20293;-84
2023/10/26 18:06:20;;;;;;;14.13;10.07;;;10.80;99.90;;;;;;10355816;28;20241;-84
2023/10/26 18:11:22;;;;;;;19.07;12.50;;;10.80;99.90;;;;;;10304657;28;20264;-85
2023/10/26 18:16:26;;;;;;;12.07;8.87;;;10.80;99.90;;;;;;10312070;28;20236;-85
2023/10/26 18:21:28;;;;;;;12.93;9.73;;;10.70;99.90;;;;;;10329890;28;20289;-85
2023/10/26 18:26:31;;;;;;;14.07;9.53;;;10.70;99.90;;;;;;10328236;28;20266;-85
2023/10/26 18:31:33;;;;;;;12.20;8.67;;;10.60;99.90;;;;;;10282228;28;20318;-85
2023/10/26 18:36:38;;;;;;;13.93;8.87;;;10.60;99.90;;;;;;10315885;28;20251;-85
2023/10/26 18:41:44;;;;;;;9.87;8.87;;;10.50;99.90;;;;;;10329158;28;20682;-85
2023/10/26 18:46:46;;;;;;;12.70;8.70;;;10.50;99.90;;;;;;10284259;28;20675;-85
2023/10/26 18:51:49;;;;;;;13.27;7.30;;;10.50;99.90;;;;;;10322108;28;20291;-83
2023/10/26 18:56:51;;;;;;;9.20;6.10;;;10.50;99.90;;;;;;10329558;28;20248;-84
2023/10/26 19:01:54;;;;;;;12.60;7.47;;;11.30;99.90;;;;;;10311907;28;20232;-84
2023/10/26 19:06:56;;;;;;;19.63;7.53;;;11.90;99.90;;;;;;10323422;28;20245;-85
2023/10/26 19:12:03;;;;;;;12.87;6.40;;;12.40;99.90;;;;;;10322531;28;20248;-85
2023/10/26 19:17:05;;;;;;;14.70;6.67;;;12.70;99.90;;;;;;10323173;28;20738;-85
2023/10/26 19:22:08;;;;;;;14.40;6.83;;;13.00;99.90;;;;;;10310691;28;20295;-84
2023/10/26 19:27:11;;;;;;;11.70;6.73;;;13.10;99.90;;;;;;10328189;28;20327;-84
2023/10/26 19:32:17;;;;;;;13.13;7.60;;;13.30;99.90;;;;;;10327283;28;20764;-85
2023/10/26 19:37:19;;;;;;;10.70;6.33;;;13.80;99.90;;;;;;10328062;28;20237;-85
2023/10/26 19:42:23;;;;;;;8.97;5.63;;;13.60;99.90;;;;;;10324349;28;20233;-86
2023/10/26 19:47:26;;;;;;;8.10;5.50;;;13.80;99.90;;;;;;10326217;28;20228;-85
2023/10/26 19:52:28;;;;;;;14.40;7.97;;;14.00;99.90;;;;;;10325060;28;20697;-86
2023/10/26 19:57:31;;;;;;;10.43;6.27;;;13.90;99.90;;;;;;10319235;28;20233;-86
2023/10/26 20:02:33;;;;;;;8.43;6.37;;;14.10;99.90;;;;;;10326106;28;20267;-86
2023/10/26 20:07:36;;;;;;;7.43;5.90;;;14.00;99.90;;;;;;10290785;28;20613;-87
2023/10/26 20:12:42;;;;;;;11.67;6.57;;;14.00;99.90;;;;;;10318701;28;20237;-86
2023/10/26 20:17:45;;;;;;;9.87;7.50;;;13.90;99.90;;;;;;10286927;28;20250;-86
2023/10/26 20:22:47;;;;;;;9.13;7.27;;;13.80;99.90;;;;;;10320953;28;20230;-85
2023/10/26 20:27:50;;;;;;;27.23;9.93;;;13.60;99.90;;;;;;10325171;28;20265;-84
2023/10/26 20:32:52;;;;;;;20.30;8.17;;;13.40;99.90;;;;;;10327726;28;20318;-85
2023/10/26 20:37:55;;;;;;;11.93;7.90;;;13.20;99.90;;;;;;10324660;28;20295;-86
2023/10/26 20:42:58;;;;;;;12.83;9.63;;;13.10;99.90;;;;;;10326495;28;20236;-85
2023/10/26 20:48:00;;;;;;;8.53;6.87;;;12.90;99.90;;;;;;10326195;28;20244;-85
2023/10/26 20:53:03;;;;;;;7.13;6.43;;;12.70;99.90;;;;;;10308335;28;20260;-85
2023/10/26 20:58:06;;;;;;;17.57;9.50;;;12.60;99.90;;;;;;10320433;28;20264;-85
2023/10/26 21:03:09;;;;;;;8.90;7.17;;;12.30;99.90;;;;;;10322567;28;20241;-84
2023/10/26 21:08:12;;;;;;;8.57;5.63;;;12.30;99.90;;;;;;10333620;28;20402;-85
2023/10/26 21:13:14;;;;;;;9.97;5.97;;;12.10;99.90;;;;;;10315946;28;20240;-85
2023/10/26 21:18:17;;;;;;;7.40;5.33;;;12.00;99.90;;;;;;10332662;28;20241;-86
2023/10/26 21:23:20;;;;;;;9.60;5.90;;;12.00;99.90;;;;;;10333280;28;20291;-85
2023/10/26 21:28:23;;;;;;;6.50;5.37;;;12.10;99.90;;;;;;10315062;28;20682;-86
2023/10/26 21:33:26;;;;;;;7.50;5.37;;;11.90;99.90;;;;;;10315062;28;20684;-86
2023/10/26 21:38:28;;;;;;;8.60;5.33;;;11.90;99.90;;;;;;10332915;28;20228;-86
2023/10/26 21:43:32;;;;;;;6.90;5.70;;;11.70;99.90;;;;;;10332147;28;20244;-86
2023/10/26 21:48:35;;;;;;;8.77;5.57;;;11.70;99.90;;;;;;10332678;28;20252;-86
2023/10/26 21:53:38;;;;;;;9.13;5.43;;;11.70;99.90;;;;;;10332498;28;20233;-86
2023/10/26 21:58:42;;;;;;;7.67;5.80;;;11.70;99.90;;;;;;10330742;28;20695;-85
2023/10/26 22:03:45;;;;;;;7.90;5.40;;;11.80;99.90;;;;;;10331649;28;20242;-85
2023/10/26 22:09:03;;;;;;;9.63;6.30;;;11.70;99.90;;;;;;10314467;28;20260;-85
2023/10/26 22:14:08;;;;;;;10.93;6.00;;;11.70;99.90;;;;;;10331049;28;20225;-86
2023/10/26 22:19:11;;;;;;;10.33;6.43;;;11.80;99.90;;;;;;10332126;28;20618;-85
2023/10/26 22:24:13;;;;;;;8.23;5.87;;;11.80;99.90;;;;;;10314928;28;20309;-85
2023/10/26 22:29:16;;;;;;;9.07;6.30;;;11.80;99.90;;;;;;10330748;28;21009;-86
2023/10/26 22:34:31;;;;;;;8.60;6.67;;;11.90;99.90;;;;;;10331904;28;20279;-86
2023/10/26 22:39:33;;;;;;;12.20;6.87;;;11.80;99.90;;;;;;10331924;28;20296;-85
2023/10/26 22:44:36;;;;;;;8.37;6.33;;;11.80;99.90;;;;;;10312951;28;20271;-86
2023/10/26 22:49:39;;;;;;;9.43;6.87;;;11.70;99.90;;;;;;10329744;28;20248;-86
2023/10/26 22:54:42;;;;;;;13.13;7.23;;;11.80;99.90;;;;;;10329465;28;20222;-86
2023/10/26 22:59:47;;;;;;;9.93;7.00;;;11.80;99.90;;;;;;10329716;28;20237;-86
2023/10/26 23:04:52;;;;;;;11.57;8.10;;;11.70;99.90;;;;;;10329883;28;20608;-86
2023/10/26 23:09:55;;;;;;;12.80;7.63;;;11.70;99.90;;;;;;10329970;28;20310;-86
2023/10/26 23:14:58;;;;;;;10.67;8.03;;;11.70;99.90;;;;;;10328833;28;20616;-86
2023/10/26 23:20:00;;;;;;;13.00;8.30;;;11.60;99.90;;;;;;10287253;28;20703;-85
2023/10/26 23:25:03;;;;;;;9.47;6.70;;;11.60;99.90;;;;;;10327060;28;20320;-85
2023/10/26 23:30:07;;;;;;;10.30;7.77;;;11.60;99.90;;;;;;10328075;28;20307;-85
2023/10/26 23:35:09;;;;;;;10.63;7.60;;;11.60;99.90;;;;;;10329138;28;20278;-86
2023/10/26 23:40:12;;;;;;;8.13;4.87;;;11.40;99.90;;;;;;10329430;28;20681;-86
2023/10/26 23:45:14;;;;;;;10.30;7.00;;;11.50;99.90;;;;;;10327890;28;20809;-86
2023/10/26 23:50:17;;;;;;;10.30;7.53;;;11.60;99.90;;;;;;10310814;28;20256;-86
2023/10/26 23:55:19;;;;;;;14.43;8.53;;;11.70;99.90;;;;;;10328031;28;20233;-85
